sensor_id;sensor_type;location;lat;lon;timestamp;P1;durP1;ratioP1;P2;durP2;ratioP2
35803;SDS011;21924;51.934;7.414;2023-02-03T00:01:55;40.47;;;18.95;;
35803;SDS011;21924;51.934;7.414;2023-02-03T00:04:40;43.88;;;20.65;;
35803;SDS011;21924;51.934;7.414;2023-02-03T00:07:24;39.92;;;19.98;;
35803;SDS011;21924;51.934;7.414;2023-02-03T00:10:08;46.15;;;21.83;;
35803;SDS011;21924;51.934;7.414;2023-02-03T00:12:53;47.33;;;21.15;;
35803;SDS011;21924;51.934;7.414;2023-02-03T00:15:37;43.88;;;21.15;;
35803;SDS011;21924;51.934;7.414;2023-02-03T00:18:22;40.33;;;20.63;;
35803;SDS011;21924;51.934;7.414;2023-02-03T00:21:06;42.35;;;21.42;;
35803;SDS011;21924;51.934;7.414;2023-02-03T00:23:50;40.20;;;20.10;;
35803;SDS011;21924;51.934;7.414;2023-02-03T00:26:34;38.17;;;21.02;;
35803;SDS011;21924;51.934;7.414;2023-02-03T00:29:24;41.97;;;20.15;;
35803;SDS011;21924;51.934;7.414;2023-02-03T00:32:09;42.63;;;20.25;;
35803;SDS011;21924;51.934;7.414;2023-02-03T00:34:53;41.38;;;20.45;;
35803;SDS011;21924;51.934;7.414;2023-02-03T00:37:37;42.47;;;20.85;;
35803;SDS011;21924;51.934;7.414;2023-02-03T00:40:22;49.60;;;20.17;;
35803;SDS011;21924;51.934;7.414;2023-02-03T00:43:08;41.38;;;18.80;;
35803;SDS011;21924;51.934;7.414;2023-02-03T00:45:52;43.65;;;20.25;;
35803;SDS011;21924;51.934;7.414;2023-02-03T00:48:37;36.38;;;18.67;;
35803;SDS011;21924;51.934;7.414;2023-02-03T00:51:21;41.50;;;19.10;;
35803;SDS011;21924;51.934;7.414;2023-02-03T00:54:05;45.00;;;18.90;;
35803;SDS011;21924;51.934;7.414;2023-02-03T00:56:50;44.58;;;19.08;;
35803;SDS011;21924;51.934;7.414;2023-02-03T00:59:34;37.95;;;19.38;;
35803;SDS011;21924;51.934;7.414;2023-02-03T01:02:18;31.77;;;18.73;;
35803;SDS011;21924;51.934;7.414;2023-02-03T01:05:02;36.67;;;18.60;;
35803;SDS011;21924;51.934;7.414;2023-02-03T01:07:47;40.38;;;18.48;;
35803;SDS011;21924;51.934;7.414;2023-02-03T01:10:31;41.22;;;18.33;;
35803;SDS011;21924;51.934;7.414;2023-02-03T01:13:15;41.92;;;19.73;;
35803;SDS011;21924;51.934;7.414;2023-02-03T01:15:59;39.50;;;18.65;;
35803;SDS011;21924;51.934;7.414;2023-02-03T01:18:44;44.33;;;19.60;;
35803;SDS011;21924;51.934;7.414;2023-02-03T01:21:29;49.00;;;19.90;;
35803;SDS011;21924;51.934;7.414;2023-02-03T01:24:14;35.38;;;16.35;;
35803;SDS011;21924;51.934;7.414;2023-02-03T01:26:58;31.50;;;16.27;;
35803;SDS011;21924;51.934;7.414;2023-02-03T01:29:43;37.72;;;18.33;;
35803;SDS011;21924;51.934;7.414;2023-02-03T01:32:27;38.35;;;17.48;;
35803;SDS011;21924;51.934;7.414;2023-02-03T01:35:12;38.45;;;18.17;;
35803;SDS011;21924;51.934;7.414;2023-02-03T01:37:55;36.45;;;16.67;;
35803;SDS011;21924;51.934;7.414;2023-02-03T01:40:43;30.02;;;16.70;;
35803;SDS011;21924;51.934;7.414;2023-02-03T01:43:37;35.58;;;15.68;;
35803;SDS011;21924;51.934;7.414;2023-02-03T01:46:30;41.88;;;16.88;;
35803;SDS011;21924;51.934;7.414;2023-02-03T01:49:23;32.47;;;16.70;;
35803;SDS011;21924;51.934;7.414;2023-02-03T01:52:12;38.92;;;16.90;;
35803;SDS011;21924;51.934;7.414;2023-02-03T01:54:57;33.28;;;15.80;;
35803;SDS011;21924;51.934;7.414;2023-02-03T01:57:46;33.22;;;16.15;;
35803;SDS011;21924;51.934;7.414;2023-02-03T02:00:43;26.63;;;14.38;;
35803;SDS011;21924;51.934;7.414;2023-02-03T02:03:41;29.30;;;15.80;;
35803;SDS011;21924;51.934;7.414;2023-02-03T02:06:29;36.22;;;15.13;;
35803;SDS011;21924;51.934;7.414;2023-02-03T02:09:13;25.27;;;13.15;;
35803;SDS011;21924;51.934;7.414;2023-02-03T02:11:58;29.85;;;14.43;;
35803;SDS011;21924;51.934;7.414;2023-02-03T02:14:43;30.75;;;14.50;;
35803;SDS011;21924;51.934;7.414;2023-02-03T02:17:38;33.42;;;13.23;;
35803;SDS011;21924;51.934;7.414;2023-02-03T02:27:02;26.95;;;14.27;;
35803;SDS011;21924;51.934;7.414;2023-02-03T02:42:14;31.42;;;12.75;;
35803;SDS011;21924;51.934;7.414;2023-02-03T02:45:04;33.70;;;12.48;;
35803;SDS011;21924;51.934;7.414;2023-02-03T02:48:11;30.77;;;12.27;;
35803;SDS011;21924;51.934;7.414;2023-02-03T02:51:14;25.20;;;12.63;;
35803;SDS011;21924;51.934;7.414;2023-02-03T02:54:01;27.65;;;11.35;;
35803;SDS011;21924;51.934;7.414;2023-02-03T02:56:50;26.17;;;11.35;;
35803;SDS011;21924;51.934;7.414;2023-02-03T02:59:37;25.40;;;11.43;;
35803;SDS011;21924;51.934;7.414;2023-02-03T03:02:21;18.95;;;10.93;;
35803;SDS011;21924;51.934;7.414;2023-02-03T03:05:09;28.60;;;11.50;;
35803;SDS011;21924;51.934;7.414;2023-02-03T03:07:56;21.35;;;9.90;;
35803;SDS011;21924;51.934;7.414;2023-02-03T03:10:45;30.77;;;11.35;;
35803;SDS011;21924;51.934;7.414;2023-02-03T03:13:43;24.27;;;9.15;;
35803;SDS011;21924;51.934;7.414;2023-02-03T03:16:34;18.45;;;9.32;;
35803;SDS011;21924;51.934;7.414;2023-02-03T03:19:22;21.15;;;9.70;;
35803;SDS011;21924;51.934;7.414;2023-02-03T03:22:09;19.23;;;9.48;;
35803;SDS011;21924;51.934;7.414;2023-02-03T03:25:02;21.17;;;8.98;;
35803;SDS011;21924;51.934;7.414;2023-02-03T03:28:00;22.42;;;9.20;;
35803;SDS011;21924;51.934;7.414;2023-02-03T03:30:48;24.67;;;9.15;;
35803;SDS011;21924;51.934;7.414;2023-02-03T03:33:32;23.35;;;8.77;;
35803;SDS011;21924;51.934;7.414;2023-02-03T03:36:31;14.10;;;8.82;;
35803;SDS011;21924;51.934;7.414;2023-02-03T03:40:00;25.92;;;9.75;;
35803;SDS011;21924;51.934;7.414;2023-02-03T03:46:18;20.52;;;9.50;;
35803;SDS011;21924;51.934;7.414;2023-02-03T03:49:09;19.25;;;8.38;;
35803;SDS011;21924;51.934;7.414;2023-02-03T03:51:56;24.52;;;8.18;;
35803;SDS011;21924;51.934;7.414;2023-02-03T03:54:45;22.58;;;7.63;;
35803;SDS011;21924;51.934;7.414;2023-02-03T03:57:53;22.52;;;8.18;;
35803;SDS011;21924;51.934;7.414;2023-02-03T04:00:36;22.33;;;7.78;;
35803;SDS011;21924;51.934;7.414;2023-02-03T04:03:23;21.77;;;7.85;;
35803;SDS011;21924;51.934;7.414;2023-02-03T04:06:12;19.45;;;7.38;;
35803;SDS011;21924;51.934;7.414;2023-02-03T04:08:57;15.95;;;7.30;;
35803;SDS011;21924;51.934;7.414;2023-02-03T04:11:41;13.55;;;7.90;;
35803;SDS011;21924;51.934;7.414;2023-02-03T04:14:44;14.93;;;6.70;;
35803;SDS011;21924;51.934;7.414;2023-02-03T04:17:28;15.65;;;7.68;;
35803;SDS011;21924;51.934;7.414;2023-02-03T04:20:13;12.85;;;6.80;;
35803;SDS011;21924;51.934;7.414;2023-02-03T04:22:57;11.70;;;7.38;;
35803;SDS011;21924;51.934;7.414;2023-02-03T04:25:41;18.25;;;6.88;;
35803;SDS011;21924;51.934;7.414;2023-02-03T04:28:26;12.30;;;6.90;;
35803;SDS011;21924;51.934;7.414;2023-02-03T04:31:10;15.60;;;6.53;;
35803;SDS011;21924;51.934;7.414;2023-02-03T04:33:54;16.17;;;6.43;;
35803;SDS011;21924;51.934;7.414;2023-02-03T04:36:39;13.15;;;5.65;;
35803;SDS011;21924;51.934;7.414;2023-02-03T04:39:23;11.88;;;6.00;;
35803;SDS011;21924;51.934;7.414;2023-02-03T04:42:07;14.07;;;6.88;;
35803;SDS011;21924;51.934;7.414;2023-02-03T04:44:52;10.35;;;5.30;;
35803;SDS011;21924;51.934;7.414;2023-02-03T04:47:36;8.90;;;4.90;;
35803;SDS011;21924;51.934;7.414;2023-02-03T04:50:21;14.00;;;5.75;;
35803;SDS011;21924;51.934;7.414;2023-02-03T04:53:06;21.60;;;6.72;;
35803;SDS011;21924;51.934;7.414;2023-02-03T04:55:50;9.77;;;5.60;;
35803;SDS011;21924;51.934;7.414;2023-02-03T04:58:35;17.08;;;4.95;;
35803;SDS011;21924;51.934;7.414;2023-02-03T05:01:19;15.90;;;5.85;;
35803;SDS011;21924;51.934;7.414;2023-02-03T05:04:04;11.32;;;5.70;;
35803;SDS011;21924;51.934;7.414;2023-02-03T05:06:48;12.45;;;5.72;;
35803;SDS011;21924;51.934;7.414;2023-02-03T05:09:33;12.70;;;5.13;;
35803;SDS011;21924;51.934;7.414;2023-02-03T05:12:17;9.95;;;4.72;;
35803;SDS011;21924;51.934;7.414;2023-02-03T05:15:01;9.48;;;5.03;;
35803;SDS011;21924;51.934;7.414;2023-02-03T05:17:45;13.30;;;5.03;;
35803;SDS011;21924;51.934;7.414;2023-02-03T05:20:29;6.90;;;4.65;;
35803;SDS011;21924;51.934;7.414;2023-02-03T05:23:13;9.00;;;4.93;;
35803;SDS011;21924;51.934;7.414;2023-02-03T05:25:57;17.92;;;5.57;;
35803;SDS011;21924;51.934;7.414;2023-02-03T05:28:42;13.38;;;5.43;;
35803;SDS011;21924;51.934;7.414;2023-02-03T05:31:26;16.42;;;4.57;;
35803;SDS011;21924;51.934;7.414;2023-02-03T05:34:10;12.13;;;4.90;;
35803;SDS011;21924;51.934;7.414;2023-02-03T05:36:55;8.95;;;4.38;;
35803;SDS011;21924;51.934;7.414;2023-02-03T05:39:39;9.70;;;4.50;;
35803;SDS011;21924;51.934;7.414;2023-02-03T05:42:23;10.85;;;4.72;;
35803;SDS011;21924;51.934;7.414;2023-02-03T05:45:08;12.35;;;5.55;;
35803;SDS011;21924;51.934;7.414;2023-02-03T05:47:52;9.43;;;4.47;;
35803;SDS011;21924;51.934;7.414;2023-02-03T05:50:37;9.15;;;4.40;;
35803;SDS011;21924;51.934;7.414;2023-02-03T05:53:21;15.13;;;5.90;;
35803;SDS011;21924;51.934;7.414;2023-02-03T05:56:05;11.48;;;4.65;;
35803;SDS011;21924;51.934;7.414;2023-02-03T05:58:50;9.07;;;4.97;;
35803;SDS011;21924;51.934;7.414;2023-02-03T06:01:36;7.78;;;5.13;;
35803;SDS011;21924;51.934;7.414;2023-02-03T06:04:20;10.57;;;4.40;;
35803;SDS011;21924;51.934;7.414;2023-02-03T06:07:05;14.73;;;5.43;;
35803;SDS011;21924;51.934;7.414;2023-02-03T06:09:49;13.70;;;4.88;;
35803;SDS011;21924;51.934;7.414;2023-02-03T06:12:33;11.40;;;4.90;;
35803;SDS011;21924;51.934;7.414;2023-02-03T06:15:17;13.57;;;4.50;;
35803;SDS011;21924;51.934;7.414;2023-02-03T06:18:02;16.50;;;5.47;;
35803;SDS011;21924;51.934;7.414;2023-02-03T06:20:46;13.05;;;6.25;;
35803;SDS011;21924;51.934;7.414;2023-02-03T06:23:30;10.20;;;5.13;;
35803;SDS011;21924;51.934;7.414;2023-02-03T06:26:14;9.38;;;4.85;;
35803;SDS011;21924;51.934;7.414;2023-02-03T06:28:58;18.52;;;6.18;;
35803;SDS011;21924;51.934;7.414;2023-02-03T06:31:43;18.13;;;6.07;;
35803;SDS011;21924;51.934;7.414;2023-02-03T06:34:27;8.98;;;4.78;;
35803;SDS011;21924;51.934;7.414;2023-02-03T06:37:11;12.90;;;5.18;;
35803;SDS011;21924;51.934;7.414;2023-02-03T06:39:55;13.65;;;6.82;;
35803;SDS011;21924;51.934;7.414;2023-02-03T06:42:40;8.52;;;4.65;;
35803;SDS011;21924;51.934;7.414;2023-02-03T06:45:29;8.48;;;5.25;;
35803;SDS011;21924;51.934;7.414;2023-02-03T06:48:13;13.25;;;5.40;;
35803;SDS011;21924;51.934;7.414;2023-02-03T06:50:57;14.95;;;6.07;;
35803;SDS011;21924;51.934;7.414;2023-02-03T06:53:42;12.10;;;5.20;;
35803;SDS011;21924;51.934;7.414;2023-02-03T06:56:26;12.07;;;6.03;;
35803;SDS011;21924;51.934;7.414;2023-02-03T06:59:10;14.15;;;5.88;;
35803;SDS011;21924;51.934;7.414;2023-02-03T07:01:54;20.73;;;6.65;;
35803;SDS011;21924;51.934;7.414;2023-02-03T07:04:39;9.55;;;6.18;;
35803;SDS011;21924;51.934;7.414;2023-02-03T07:07:23;12.43;;;6.03;;
35803;SDS011;21924;51.934;7.414;2023-02-03T07:10:08;11.63;;;5.72;;
35803;SDS011;21924;51.934;7.414;2023-02-03T07:12:53;14.25;;;6.43;;
35803;SDS011;21924;51.934;7.414;2023-02-03T07:15:37;9.55;;;6.57;;
35803;SDS011;21924;51.934;7.414;2023-02-03T07:18:21;16.50;;;6.32;;
35803;SDS011;21924;51.934;7.414;2023-02-03T07:21:07;11.60;;;5.90;;
35803;SDS011;21924;51.934;7.414;2023-02-03T07:23:51;15.30;;;7.15;;
35803;SDS011;21924;51.934;7.414;2023-02-03T07:26:36;16.35;;;6.40;;
35803;SDS011;21924;51.934;7.414;2023-02-03T07:29:21;10.50;;;6.15;;
35803;SDS011;21924;51.934;7.414;2023-02-03T07:32:06;11.57;;;7.47;;
35803;SDS011;21924;51.934;7.414;2023-02-03T07:34:50;23.45;;;7.65;;
35803;SDS011;21924;51.934;7.414;2023-02-03T07:37:34;13.93;;;6.70;;
35803;SDS011;21924;51.934;7.414;2023-02-03T07:40:19;9.65;;;6.65;;
35803;SDS011;21924;51.934;7.414;2023-02-03T07:43:03;19.67;;;7.43;;
35803;SDS011;21924;51.934;7.414;2023-02-03T07:45:47;10.85;;;6.50;;
35803;SDS011;21924;51.934;7.414;2023-02-03T07:48:31;15.80;;;7.10;;
35803;SDS011;21924;51.934;7.414;2023-02-03T07:51:16;11.25;;;7.35;;
35803;SDS011;21924;51.934;7.414;2023-02-03T07:54:00;12.70;;;7.28;;
35803;SDS011;21924;51.934;7.414;2023-02-03T07:56:44;17.88;;;7.05;;
35803;SDS011;21924;51.934;7.414;2023-02-03T07:59:29;17.25;;;8.32;;
35803;SDS011;21924;51.934;7.414;2023-02-03T08:02:13;18.00;;;8.55;;
35803;SDS011;21924;51.934;7.414;2023-02-03T08:04:57;13.93;;;8.00;;
35803;SDS011;21924;51.934;7.414;2023-02-03T08:07:41;14.18;;;8.20;;
35803;SDS011;21924;51.934;7.414;2023-02-03T08:10:26;14.85;;;8.88;;
35803;SDS011;21924;51.934;7.414;2023-02-03T08:13:10;19.60;;;8.13;;
35803;SDS011;21924;51.934;7.414;2023-02-03T08:15:54;23.88;;;8.23;;
35803;SDS011;21924;51.934;7.414;2023-02-03T08:18:39;14.27;;;7.88;;
35803;SDS011;21924;51.934;7.414;2023-02-03T08:21:23;33.92;;;8.13;;
35803;SDS011;21924;51.934;7.414;2023-02-03T08:24:07;16.27;;;7.72;;
35803;SDS011;21924;51.934;7.414;2023-02-03T08:26:51;16.60;;;7.82;;
35803;SDS011;21924;51.934;7.414;2023-02-03T08:29:37;9.05;;;6.85;;
35803;SDS011;21924;51.934;7.414;2023-02-03T08:32:21;17.50;;;6.97;;
35803;SDS011;21924;51.934;7.414;2023-02-03T08:35:07;13.90;;;7.05;;
35803;SDS011;21924;51.934;7.414;2023-02-03T08:37:52;16.17;;;7.88;;
35803;SDS011;21924;51.934;7.414;2023-02-03T08:40:36;19.15;;;7.32;;
35803;SDS011;21924;51.934;7.414;2023-02-03T08:43:21;15.88;;;6.82;;
35803;SDS011;21924;51.934;7.414;2023-02-03T08:46:06;22.38;;;8.23;;
35803;SDS011;21924;51.934;7.414;2023-02-03T08:48:52;24.33;;;7.32;;
35803;SDS011;21924;51.934;7.414;2023-02-03T08:51:38;21.67;;;6.95;;
35803;SDS011;21924;51.934;7.414;2023-02-03T08:54:23;26.75;;;7.80;;
35803;SDS011;21924;51.934;7.414;2023-02-03T08:57:08;23.27;;;7.03;;
35803;SDS011;21924;51.934;7.414;2023-02-03T08:59:52;29.80;;;9.13;;
35803;SDS011;21924;51.934;7.414;2023-02-03T09:02:37;20.98;;;9.45;;
35803;SDS011;21924;51.934;7.414;2023-02-03T09:05:21;20.35;;;7.10;;
35803;SDS011;21924;51.934;7.414;2023-02-03T09:08:06;17.50;;;7.88;;
35803;SDS011;21924;51.934;7.414;2023-02-03T09:10:50;14.15;;;5.93;;
35803;SDS011;21924;51.934;7.414;2023-02-03T09:13:34;24.17;;;7.93;;
35803;SDS011;21924;51.934;7.414;2023-02-03T09:16:18;17.13;;;7.32;;
35803;SDS011;21924;51.934;7.414;2023-02-03T09:19:04;13.45;;;8.13;;
35803;SDS011;21924;51.934;7.414;2023-02-03T09:21:49;24.83;;;8.43;;
35803;SDS011;21924;51.934;7.414;2023-02-03T09:24:33;19.98;;;8.50;;
35803;SDS011;21924;51.934;7.414;2023-02-03T09:27:17;13.23;;;7.85;;
35803;SDS011;21924;51.934;7.414;2023-02-03T09:30:02;24.98;;;6.90;;
35803;SDS011;21924;51.934;7.414;2023-02-03T09:32:46;18.25;;;6.95;;
35803;SDS011;21924;51.934;7.414;2023-02-03T09:35:36;14.52;;;6.68;;
35803;SDS011;21924;51.934;7.414;2023-02-03T09:38:21;17.60;;;6.60;;
35803;SDS011;21924;51.934;7.414;2023-02-03T09:47:27;17.38;;;6.70;;
35803;SDS011;21924;51.934;7.414;2023-02-03T09:50:17;11.80;;;6.43;;
35803;SDS011;21924;51.934;7.414;2023-02-03T09:53:13;11.18;;;7.07;;
35803;SDS011;21924;51.934;7.414;2023-02-03T09:56:15;14.48;;;7.28;;
35803;SDS011;21924;51.934;7.414;2023-02-03T09:59:07;23.98;;;6.68;;
35803;SDS011;21924;51.934;7.414;2023-02-03T10:10:56;13.70;;;6.45;;
35803;SDS011;21924;51.934;7.414;2023-02-03T10:14:07;13.32;;;6.75;;
35803;SDS011;21924;51.934;7.414;2023-02-03T10:17:13;16.70;;;6.88;;
35803;SDS011;21924;51.934;7.414;2023-02-03T10:20:23;16.33;;;6.57;;
35803;SDS011;21924;51.934;7.414;2023-02-03T10:23:29;14.70;;;5.85;;
35803;SDS011;21924;51.934;7.414;2023-02-03T10:26:21;17.92;;;6.93;;
35803;SDS011;21924;51.934;7.414;2023-02-03T10:29:52;16.48;;;6.28;;
35803;SDS011;21924;51.934;7.414;2023-02-03T10:32:23;10.20;;;5.40;;
35803;SDS011;21924;51.934;7.414;2023-02-03T10:35:12;16.42;;;6.32;;
35803;SDS011;21924;51.934;7.414;2023-02-03T10:38:02;19.90;;;6.15;;
35803;SDS011;21924;51.934;7.414;2023-02-03T10:40:50;14.48;;;7.10;;
35803;SDS011;21924;51.934;7.414;2023-02-03T10:43:34;10.25;;;5.78;;
35803;SDS011;21924;51.934;7.414;2023-02-03T10:46:34;11.93;;;5.85;;
35803;SDS011;21924;51.934;7.414;2023-02-03T10:49:20;15.07;;;6.78;;
35803;SDS011;21924;51.934;7.414;2023-02-03T10:52:04;14.45;;;6.43;;
35803;SDS011;21924;51.934;7.414;2023-02-03T10:54:49;11.50;;;8.10;;
35803;SDS011;21924;51.934;7.414;2023-02-03T10:57:36;13.35;;;6.47;;
35803;SDS011;21924;51.934;7.414;2023-02-03T11:00:29;13.98;;;6.93;;
35803;SDS011;21924;51.934;7.414;2023-02-03T11:03:22;18.63;;;5.97;;
35803;SDS011;21924;51.934;7.414;2023-02-03T11:06:14;15.90;;;5.82;;
35803;SDS011;21924;51.934;7.414;2023-02-03T11:08:59;11.73;;;5.03;;
35803;SDS011;21924;51.934;7.414;2023-02-03T11:11:43;17.77;;;5.78;;
35803;SDS011;21924;51.934;7.414;2023-02-03T11:14:27;15.65;;;5.57;;
35803;SDS011;21924;51.934;7.414;2023-02-03T11:17:24;10.70;;;4.82;;
35803;SDS011;21924;51.934;7.414;2023-02-03T11:20:13;9.98;;;5.50;;
35803;SDS011;21924;51.934;7.414;2023-02-03T11:22:59;9.68;;;5.35;;
35803;SDS011;21924;51.934;7.414;2023-02-03T11:25:44;11.18;;;5.50;;
35803;SDS011;21924;51.934;7.414;2023-02-03T11:28:28;19.02;;;5.22;;
35803;SDS011;21924;51.934;7.414;2023-02-03T11:31:16;13.68;;;4.43;;
35803;SDS011;21924;51.934;7.414;2023-02-03T11:34:16;14.77;;;4.95;;
35803;SDS011;21924;51.934;7.414;2023-02-03T11:43:09;13.55;;;5.05;;
35803;SDS011;21924;51.934;7.414;2023-02-03T11:46:00;11.05;;;4.47;;
35803;SDS011;21924;51.934;7.414;2023-02-03T11:48:56;9.40;;;4.75;;
35803;SDS011;21924;51.934;7.414;2023-02-03T11:52:13;10.73;;;5.43;;
35803;SDS011;21924;51.934;7.414;2023-02-03T12:28:28;26.70;;;8.00;;
35803;SDS011;21924;51.934;7.414;2023-02-03T12:31:38;18.15;;;7.88;;
35803;SDS011;21924;51.934;7.414;2023-02-03T12:37:41;18.40;;;7.78;;
35803;SDS011;21924;51.934;7.414;2023-02-03T12:43:34;26.42;;;7.50;;
35803;SDS011;21924;51.934;7.414;2023-02-03T12:46:26;21.58;;;7.30;;
35803;SDS011;21924;51.934;7.414;2023-02-03T12:52:13;14.73;;;6.05;;
35803;SDS011;21924;51.934;7.414;2023-02-03T12:58:40;19.70;;;5.45;;
35803;SDS011;21924;51.934;7.414;2023-02-03T13:01:57;12.88;;;4.93;;
35803;SDS011;21924;51.934;7.414;2023-02-03T13:04:48;18.75;;;5.85;;
35803;SDS011;21924;51.934;7.414;2023-02-03T13:07:42;18.92;;;5.85;;
35803;SDS011;21924;51.934;7.414;2023-02-03T13:10:36;22.80;;;5.95;;
35803;SDS011;21924;51.934;7.414;2023-02-03T13:13:35;26.00;;;6.43;;
35803;SDS011;21924;51.934;7.414;2023-02-03T13:16:42;16.38;;;5.32;;
35803;SDS011;21924;51.934;7.414;2023-02-03T13:19:34;26.05;;;5.85;;
35803;SDS011;21924;51.934;7.414;2023-02-03T13:22:25;20.52;;;5.97;;
35803;SDS011;21924;51.934;7.414;2023-02-03T13:25:23;21.42;;;5.57;;
35803;SDS011;21924;51.934;7.414;2023-02-03T13:40:18;23.10;;;5.93;;
35803;SDS011;21924;51.934;7.414;2023-02-03T13:43:27;41.00;;;7.60;;
35803;SDS011;21924;51.934;7.414;2023-02-03T13:46:33;29.35;;;6.35;;
35803;SDS011;21924;51.934;7.414;2023-02-03T13:49:26;29.52;;;6.13;;
35803;SDS011;21924;51.934;7.414;2023-02-03T13:55:34;26.08;;;6.28;;
35803;SDS011;21924;51.934;7.414;2023-02-03T13:58:37;34.97;;;6.32;;
35803;SDS011;21924;51.934;7.414;2023-02-03T14:07:28;38.75;;;7.45;;
35803;SDS011;21924;51.934;7.414;2023-02-03T14:10:20;31.65;;;7.25;;
35803;SDS011;21924;51.934;7.414;2023-02-03T14:13:17;27.10;;;7.03;;
35803;SDS011;21924;51.934;7.414;2023-02-03T14:16:13;35.38;;;8.57;;
35803;SDS011;21924;51.934;7.414;2023-02-03T14:19:09;38.55;;;9.13;;
35803;SDS011;21924;51.934;7.414;2023-02-03T14:22:03;30.67;;;9.20;;
35803;SDS011;21924;51.934;7.414;2023-02-03T14:24:50;56.85;;;10.68;;
35803;SDS011;21924;51.934;7.414;2023-02-03T14:27:37;39.38;;;8.70;;
35803;SDS011;21924;51.934;7.414;2023-02-03T14:30:21;39.33;;;8.70;;
35803;SDS011;21924;51.934;7.414;2023-02-03T14:33:05;44.10;;;10.73;;
35803;SDS011;21924;51.934;7.414;2023-02-03T14:35:50;37.30;;;9.77;;
35803;SDS011;21924;51.934;7.414;2023-02-03T14:38:34;26.63;;;8.20;;
35803;SDS011;21924;51.934;7.414;2023-02-03T14:41:21;50.08;;;10.43;;
35803;SDS011;21924;51.934;7.414;2023-02-03T14:44:20;41.08;;;11.10;;
35803;SDS011;21924;51.934;7.414;2023-02-03T14:47:34;25.10;;;6.55;;
35803;SDS011;21924;51.934;7.414;2023-02-03T14:50:47;33.70;;;8.55;;
35803;SDS011;21924;51.934;7.414;2023-02-03T14:57:26;33.88;;;5.88;;
35803;SDS011;21924;51.934;7.414;2023-02-03T15:00:28;24.17;;;5.22;;
35803;SDS011;21924;51.934;7.414;2023-02-03T15:03:18;22.02;;;5.82;;
35803;SDS011;21924;51.934;7.414;2023-02-03T15:06:05;26.48;;;6.35;;
35803;SDS011;21924;51.934;7.414;2023-02-03T15:08:49;22.38;;;5.38;;
35803;SDS011;21924;51.934;7.414;2023-02-03T15:11:44;23.85;;;6.10;;
35803;SDS011;21924;51.934;7.414;2023-02-03T15:14:30;18.45;;;4.75;;
35803;SDS011;21924;51.934;7.414;2023-02-03T15:17:22;22.73;;;5.00;;
35803;SDS011;21924;51.934;7.414;2023-02-03T15:23:35;19.35;;;4.00;;
35803;SDS011;21924;51.934;7.414;2023-02-03T15:26:25;28.75;;;6.88;;
35803;SDS011;21924;51.934;7.414;2023-02-03T15:29:15;24.70;;;5.43;;
35803;SDS011;21924;51.934;7.414;2023-02-03T15:32:32;27.65;;;6.32;;
35803;SDS011;21924;51.934;7.414;2023-02-03T15:35:19;15.65;;;4.55;;
35803;SDS011;21924;51.934;7.414;2023-02-03T15:38:05;24.80;;;5.57;;
35803;SDS011;21924;51.934;7.414;2023-02-03T15:40:56;16.73;;;4.47;;
35803;SDS011;21924;51.934;7.414;2023-02-03T15:43:42;19.15;;;4.25;;
35803;SDS011;21924;51.934;7.414;2023-02-03T15:46:34;18.20;;;4.50;;
35803;SDS011;21924;51.934;7.414;2023-02-03T15:49:22;21.58;;;4.80;;
35803;SDS011;21924;51.934;7.414;2023-02-03T15:52:18;22.60;;;5.50;;
35803;SDS011;21924;51.934;7.414;2023-02-03T15:55:12;20.45;;;5.22;;
35803;SDS011;21924;51.934;7.414;2023-02-03T15:58:03;23.55;;;5.13;;
35803;SDS011;21924;51.934;7.414;2023-02-03T16:00:49;30.15;;;5.65;;
35803;SDS011;21924;51.934;7.414;2023-02-03T16:03:37;21.30;;;5.47;;
35803;SDS011;21924;51.934;7.414;2023-02-03T16:06:31;26.92;;;4.95;;
35803;SDS011;21924;51.934;7.414;2023-02-03T16:09:27;25.42;;;4.88;;
35803;SDS011;21924;51.934;7.414;2023-02-03T16:12:22;33.67;;;5.20;;
35803;SDS011;21924;51.934;7.414;2023-02-03T16:15:19;24.73;;;4.90;;
35803;SDS011;21924;51.934;7.414;2023-02-03T16:18:15;18.23;;;4.05;;
35803;SDS011;21924;51.934;7.414;2023-02-03T16:21:00;26.20;;;5.72;;
35803;SDS011;21924;51.934;7.414;2023-02-03T16:23:49;25.98;;;4.82;;
35803;SDS011;21924;51.934;7.414;2023-02-03T16:26:34;24.48;;;4.35;;
35803;SDS011;21924;51.934;7.414;2023-02-03T16:29:27;24.35;;;4.53;;
35803;SDS011;21924;51.934;7.414;2023-02-03T16:32:31;27.48;;;6.03;;
35803;SDS011;21924;51.934;7.414;2023-02-03T16:35:34;31.42;;;6.18;;
35803;SDS011;21924;51.934;7.414;2023-02-03T16:38:42;23.80;;;6.40;;
35803;SDS011;21924;51.934;7.414;2023-02-03T16:41:49;26.88;;;6.13;;
35803;SDS011;21924;51.934;7.414;2023-02-03T16:44:52;23.35;;;6.82;;
35803;SDS011;21924;51.934;7.414;2023-02-03T16:47:55;28.05;;;8.10;;
35803;SDS011;21924;51.934;7.414;2023-02-03T16:51:04;29.95;;;7.68;;
35803;SDS011;21924;51.934;7.414;2023-02-03T16:53:53;32.13;;;9.48;;
35803;SDS011;21924;51.934;7.414;2023-02-03T16:56:38;36.17;;;7.70;;
35803;SDS011;21924;51.934;7.414;2023-02-03T16:59:22;41.13;;;10.45;;
35803;SDS011;21924;51.934;7.414;2023-02-03T17:02:06;26.30;;;8.48;;
35803;SDS011;21924;51.934;7.414;2023-02-03T17:04:52;30.48;;;10.18;;
35803;SDS011;21924;51.934;7.414;2023-02-03T17:07:37;38.63;;;10.77;;
35803;SDS011;21924;51.934;7.414;2023-02-03T17:10:21;33.28;;;10.07;;
35803;SDS011;21924;51.934;7.414;2023-02-03T17:13:05;30.38;;;9.45;;
35803;SDS011;21924;51.934;7.414;2023-02-03T17:15:50;26.08;;;10.18;;
35803;SDS011;21924;51.934;7.414;2023-02-03T17:18:38;25.73;;;6.63;;
35803;SDS011;21924;51.934;7.414;2023-02-03T17:21:25;22.85;;;6.40;;
35803;SDS011;21924;51.934;7.414;2023-02-03T17:24:10;22.83;;;6.43;;
35803;SDS011;21924;51.934;7.414;2023-02-03T17:26:55;18.88;;;6.00;;
35803;SDS011;21924;51.934;7.414;2023-02-03T17:29:39;18.83;;;4.95;;
35803;SDS011;21924;51.934;7.414;2023-02-03T17:32:24;18.40;;;5.20;;
35803;SDS011;21924;51.934;7.414;2023-02-03T17:35:08;25.05;;;5.00;;
35803;SDS011;21924;51.934;7.414;2023-02-03T17:37:52;21.17;;;5.25;;
35803;SDS011;21924;51.934;7.414;2023-02-03T17:40:38;26.17;;;5.68;;
35803;SDS011;21924;51.934;7.414;2023-02-03T17:43:26;22.02;;;7.93;;
35803;SDS011;21924;51.934;7.414;2023-02-03T17:46:16;19.73;;;5.70;;
35803;SDS011;21924;51.934;7.414;2023-02-03T17:49:02;17.58;;;4.90;;
35803;SDS011;21924;51.934;7.414;2023-02-03T17:51:47;37.78;;;6.90;;
35803;SDS011;21924;51.934;7.414;2023-02-03T17:54:31;28.10;;;4.88;;
35803;SDS011;21924;51.934;7.414;2023-02-03T17:57:15;22.98;;;6.32;;
35803;SDS011;21924;51.934;7.414;2023-02-03T18:00:00;27.40;;;4.85;;
35803;SDS011;21924;51.934;7.414;2023-02-03T18:02:47;19.70;;;4.88;;
35803;SDS011;21924;51.934;7.414;2023-02-03T18:05:33;22.23;;;5.40;;
35803;SDS011;21924;51.934;7.414;2023-02-03T18:08:19;24.33;;;5.15;;
35803;SDS011;21924;51.934;7.414;2023-02-03T18:11:04;18.17;;;5.60;;
35803;SDS011;21924;51.934;7.414;2023-02-03T18:13:49;36.45;;;5.95;;
35803;SDS011;21924;51.934;7.414;2023-02-03T18:16:33;15.55;;;5.80;;
35803;SDS011;21924;51.934;7.414;2023-02-03T18:19:18;32.55;;;6.95;;
35803;SDS011;21924;51.934;7.414;2023-02-03T18:22:02;20.90;;;6.45;;
35803;SDS011;21924;51.934;7.414;2023-02-03T18:24:47;25.10;;;6.32;;
35803;SDS011;21924;51.934;7.414;2023-02-03T18:27:34;25.58;;;5.93;;
35803;SDS011;21924;51.934;7.414;2023-02-03T18:30:19;30.60;;;6.82;;
35803;SDS011;21924;51.934;7.414;2023-02-03T18:33:04;25.48;;;5.38;;
35803;SDS011;21924;51.934;7.414;2023-02-03T18:35:48;24.83;;;5.97;;
35803;SDS011;21924;51.934;7.414;2023-02-03T18:38:33;29.88;;;6.57;;